sensor_id;sensor_type;location;lat;lon;timestamp;pressure;altitude;pressure_sealevel;temperature;humidity
48200;BME280;33990;44.602;10.976;2023-07-29T00:00:58;100782.78;;;27.53;49.48
48200;BME280;33990;44.602;10.976;2023-07-29T00:03:27;100786.19;;;27.55;49.66
48200;BME280;33990;44.602;10.976;2023-07-29T00:05:57;100787.19;;;27.54;49.84
48200;BME280;33990;44.602;10.976;2023-07-29T00:08:24;100784.47;;;27.54;49.70
48200;BME280;33990;44.602;10.976;2023-07-29T00:10:52;100779.03;;;27.54;49.66
48200;BME280;33990;44.602;10.976;2023-07-29T00:13:19;100776.16;;;27.56;50.08
48200;BME280;33990;44.602;10.976;2023-07-29T00:15:48;100779.91;;;27.55;49.55
48200;BME280;33990;44.602;10.976;2023-07-29T00:18:16;100779.03;;;27.54;49.60
48200;BME280;33990;44.602;10.976;2023-07-29T00:20:43;100789.91;;;27.54;49.60
48200;BME280;33990;44.602;10.976;2023-07-29T00:23:11;100776.31;;;27.54;49.74
48200;BME280;33990;44.602;10.976;2023-07-29T00:25:38;100781.59;;;27.56;49.85
48200;BME280;33990;44.602;10.976;2023-07-29T00:28:09;100784.31;;;27.56;49.86
48200;BME280;33990;44.602;10.976;2023-07-29T00:30:37;100785.13;;;27.56;49.78
48200;BME280;33990;44.602;10.976;2023-07-29T00:33:07;100784.31;;;27.56;49.86
48200;BME280;33990;44.602;10.976;2023-07-29T00:35:38;100788.06;;;27.55;49.96
48200;BME280;33990;44.602;10.976;2023-07-29T00:38:06;100787.03;;;27.56;50.00
48200;BME280;33990;44.602;10.976;2023-07-29T00:40:35;100785.13;;;27.56;49.86
48200;BME280;33990;44.602;10.976;2023-07-29T00:43:03;100785.34;;;27.55;49.73
48200;BME280;33990;44.602;10.976;2023-07-29T00:45:31;100785.13;;;27.56;49.57
48200;BME280;33990;44.602;10.976;2023-07-29T00:48:03;100789.75;;;27.56;49.81
48200;BME280;33990;44.602;10.976;2023-07-29T00:50:32;100787.88;;;27.56;49.67
48200;BME280;33990;44.602;10.976;2023-07-29T00:53:00;100785.13;;;27.56;49.92
48200;BME280;33990;44.602;10.976;2023-07-29T00:55:28;100787.88;;;27.56;49.58
48200;BME280;33990;44.602;10.976;2023-07-29T00:57:56;100793.31;;;27.56;49.84
48200;BME280;33990;44.602;10.976;2023-07-29T01:00:23;100790.59;;;27.56;50.13
48200;BME280;33990;44.602;10.976;2023-07-29T01:02:52;100784.31;;;27.56;50.09
48200;BME280;33990;44.602;10.976;2023-07-29T01:05:22;100789.75;;;27.56;49.84
48200;BME280;33990;44.602;10.976;2023-07-29T01:09:03;100796.03;;;27.56;49.85
48200;BME280;33990;44.602;10.976;2023-07-29T01:11:21;100798.75;;;27.56;49.78
48200;BME280;33990;44.602;10.976;2023-07-29T01:13:58;100795.19;;;27.56;49.74
48200;BME280;33990;44.602;10.976;2023-07-29T01:16:39;100798.75;;;27.56;50.03
48200;BME280;33990;44.602;10.976;2023-07-29T01:19:20;100800.78;;;27.54;49.78
48200;BME280;33990;44.602;10.976;2023-07-29T01:21:52;100792.63;;;27.54;50.24
48200;BME280;33990;44.602;10.976;2023-07-29T01:24:20;100802.50;;;27.55;49.95
48200;BME280;33990;44.602;10.976;2023-07-29T01:26:47;100797.91;;;27.56;50.14
48200;BME280;33990;44.602;10.976;2023-07-29T01:29:14;100800.78;;;27.54;50.08
48200;BME280;33990;44.602;10.976;2023-07-29T01:31:44;100796.22;;;27.55;50.23
48200;BME280;33990;44.602;10.976;2023-07-29T01:34:22;100801.66;;;27.55;49.94
48200;BME280;33990;44.602;10.976;2023-07-29T01:36:54;100798.94;;;27.55;50.30
48200;BME280;33990;44.602;10.976;2023-07-29T01:39:29;100797.91;;;27.56;50.31
48200;BME280;33990;44.602;10.976;2023-07-29T01:42:00;100798.06;;;27.54;50.29
48200;BME280;33990;44.602;10.976;2023-07-29T01:44:28;100796.22;;;27.55;50.01
48200;BME280;33990;44.602;10.976;2023-07-29T01:46:56;100796.03;;;27.56;50.15
48200;BME280;33990;44.602;10.976;2023-07-29T01:49:24;100797.91;;;27.56;50.05
48200;BME280;33990;44.602;10.976;2023-07-29T01:51:51;100796.22;;;27.55;50.29
48200;BME280;33990;44.602;10.976;2023-07-29T01:54:18;100797.06;;;27.55;50.41
48200;BME280;33990;44.602;10.976;2023-07-29T01:56:46;100792.63;;;27.54;50.38
48200;BME280;33990;44.602;10.976;2023-07-29T01:59:13;100789.91;;;27.54;50.65
48200;BME280;33990;44.602;10.976;2023-07-29T02:01:43;100787.38;;;27.53;50.46
48200;BME280;33990;44.602;10.976;2023-07-29T02:04:10;100790.09;;;27.53;50.67
48200;BME280;33990;44.602;10.976;2023-07-29T02:06:38;100792.81;;;27.53;50.99
48200;BME280;33990;44.602;10.976;2023-07-29T02:09:05;100791.16;;;27.52;51.05
48200;BME280;33990;44.602;10.976;2023-07-29T02:11:33;100794.72;;;27.52;51.28
48200;BME280;33990;44.602;10.976;2023-07-29T02:14:00;100788.44;;;27.52;50.94
48200;BME280;33990;44.602;10.976;2023-07-29T02:16:28;100801.19;;;27.51;50.95
48200;BME280;33990;44.602;10.976;2023-07-29T02:18:55;100799.31;;;27.52;50.89
48200;BME280;33990;44.602;10.976;2023-07-29T02:21:23;100797.78;;;27.49;50.84
48200;BME280;33990;44.602;10.976;2023-07-29T02:23:50;100802.03;;;27.52;51.36
48200;BME280;33990;44.602;10.976;2023-07-29T02:26:18;100795.75;;;27.51;51.45
48200;BME280;33990;44.602;10.976;2023-07-29T02:28:46;100799.47;;;27.50;51.82
48200;BME280;33990;44.602;10.976;2023-07-29T02:31:21;100792.19;;;27.51;52.04
48200;BME280;33990;44.602;10.976;2023-07-29T02:33:49;100788.59;;;27.50;52.02
48200;BME280;33990;44.602;10.976;2023-07-29T02:36:18;100789.63;;;27.49;51.81
48200;BME280;33990;44.602;10.976;2023-07-29T02:38:45;100785.22;;;27.48;51.93
48200;BME280;33990;44.602;10.976;2023-07-29T02:41:13;100789.00;;;27.47;51.79
48200;BME280;33990;44.602;10.976;2023-07-29T02:43:43;100799.88;;;27.47;51.92
48200;BME280;33990;44.602;10.976;2023-07-29T02:46:11;100794.59;;;27.46;51.83
48200;BME280;33990;44.602;10.976;2023-07-29T02:48:38;100809.22;;;27.45;51.92
48200;BME280;33990;44.602;10.976;2023-07-29T02:51:06;100819.06;;;27.46;51.83
48200;BME280;33990;44.602;10.976;2023-07-29T02:53:33;100816.53;;;27.44;51.85
48200;BME280;33990;44.602;10.976;2023-07-29T02:56:00;100817.59;;;27.43;51.71
48200;BME280;33990;44.602;10.976;2023-07-29T02:58:28;100812.31;;;27.42;51.75
48200;BME280;33990;44.602;10.976;2023-07-29T03:01:03;100811.47;;;27.41;51.65
48200;BME280;33990;44.602;10.976;2023-07-29T03:03:31;100815.22;;;27.40;51.63
48200;BME280;33990;44.602;10.976;2023-07-29T03:06:04;100817.94;;;27.40;51.99
48200;BME280;33990;44.602;10.976;2023-07-29T03:08:33;100818.78;;;27.41;51.80
48200;BME280;33990;44.602;10.976;2023-07-29T03:11:11;100812.50;;;27.40;51.91
48200;BME280;33990;44.602;10.976;2023-07-29T03:13:39;100808.13;;;27.39;51.80
48200;BME280;33990;44.602;10.976;2023-07-29T03:16:06;100802.69;;;27.39;51.89
48200;BME280;33990;44.602;10.976;2023-07-29T03:18:35;100806.22;;;27.40;51.74
48200;BME280;33990;44.602;10.976;2023-07-29T03:21:03;100816.28;;;27.39;51.66
48200;BME280;33990;44.602;10.976;2023-07-29T03:23:31;100817.28;;;27.38;51.35
48200;BME280;33990;44.602;10.976;2023-07-29T03:26:00;100823.56;;;27.39;51.31
48200;BME280;33990;44.602;10.976;2023-07-29T03:28:29;100813.72;;;27.38;51.29
48200;BME280;33990;44.602;10.976;2023-07-29T03:30:57;100806.41;;;27.38;51.16
48200;BME280;33990;44.602;10.976;2023-07-29T03:33:25;100801.16;;;27.36;51.05
48200;BME280;33990;44.602;10.976;2023-07-29T03:35:53;100812.88;;;27.37;51.48
48200;BME280;33990;44.602;10.976;2023-07-29T03:38:20;100808.28;;;27.38;51.57
48200;BME280;33990;44.602;10.976;2023-07-29T03:40:48;100805.56;;;27.38;51.41
48200;BME280;33990;44.602;10.976;2023-07-29T03:43:15;100813.91;;;27.36;51.38
48200;BME280;33990;44.602;10.976;2023-07-29T03:45:43;100821.03;;;27.37;51.47
48200;BME280;33990;44.602;10.976;2023-07-29T03:48:11;100811.00;;;27.38;51.87
48200;BME280;33990;44.602;10.976;2023-07-29T03:50:39;100812.88;;;27.37;51.84
48200;BME280;33990;44.602;10.976;2023-07-29T03:53:06;100819.16;;;27.38;51.91
48200;BME280;33990;44.602;10.976;2023-07-29T03:55:33;100827.31;;;27.38;51.78
48200;BME280;33990;44.602;10.976;2023-07-29T03:58:01;100839.03;;;27.38;51.71
48200;BME280;33990;44.602;10.976;2023-07-29T04:00:28;100837.16;;;27.39;51.75
48200;BME280;33990;44.602;10.976;2023-07-29T04:02:56;100832.75;;;27.38;51.58
48200;BME280;33990;44.602;10.976;2023-07-29T04:05:23;100843.63;;;27.38;51.47
48200;BME280;33990;44.602;10.976;2023-07-29T04:07:51;100839.03;;;27.38;51.83
48200;BME280;33990;44.602;10.976;2023-07-29T04:10:30;100832.75;;;27.38;51.54
48200;BME280;33990;44.602;10.976;2023-07-29T04:12:58;100832.75;;;27.38;51.48
48200;BME280;33990;44.602;10.976;2023-07-29T04:15:26;100832.75;;;27.38;51.51
48200;BME280;33990;44.602;10.976;2023-07-29T04:17:53;100835.47;;;27.38;51.90
48200;BME280;33990;44.602;10.976;2023-07-29T04:20:21;100839.22;;;27.36;51.64
48200;BME280;33990;44.602;10.976;2023-07-29T04:22:48;100849.25;;;27.36;51.45
48200;BME280;33990;44.602;10.976;2023-07-29T04:25:15;100846.53;;;27.36;51.29
48200;BME280;33990;44.602;10.976;2023-07-29T04:27:43;100850.09;;;27.36;51.68
48200;BME280;33990;44.602;10.976;2023-07-29T04:30:10;100851.97;;;27.36;51.61
48200;BME280;33990;44.602;10.976;2023-07-29T04:32:38;100846.69;;;27.34;51.81
48200;BME280;33990;44.602;10.976;2023-07-29T04:35:08;100845.69;;;27.35;51.70
48200;BME280;33990;44.602;10.976;2023-07-29T04:37:36;100847.75;;;27.33;51.60
48200;BME280;33990;44.602;10.976;2023-07-29T04:40:04;100859.44;;;27.34;51.24
48200;BME280;33990;44.602;10.976;2023-07-29T04:42:32;100859.66;;;27.32;51.16
48200;BME280;33990;44.602;10.976;2023-07-29T04:44:59;100856.94;;;27.32;51.17
48200;BME280;33990;44.602;10.976;2023-07-29T04:47:27;100854.41;;;27.31;51.20
48200;BME280;33990;44.602;10.976;2023-07-29T04:49:54;100857.97;;;27.31;51.20
48200;BME280;33990;44.602;10.976;2023-07-29T04:52:21;100854.41;;;27.31;51.14
48200;BME280;33990;44.602;10.976;2023-07-29T04:54:49;100856.09;;;27.32;51.37
48200;BME280;33990;44.602;10.976;2023-07-29T04:57:16;100854.41;;;27.31;51.13
48200;BME280;33990;44.602;10.976;2023-07-29T04:59:44;100859.84;;;27.31;51.30
48200;BME280;33990;44.602;10.976;2023-07-29T05:02:11;100859.84;;;27.31;51.29
48200;BME280;33990;44.602;10.976;2023-07-29T05:04:38;100863.41;;;27.31;51.21
48200;BME280;33990;44.602;10.976;2023-07-29T05:07:06;100868.84;;;27.31;51.85
48200;BME280;33990;44.602;10.976;2023-07-29T05:09:33;100857.97;;;27.31;51.41
48200;BME280;33990;44.602;10.976;2023-07-29T05:12:02;100859.84;;;27.31;51.32
48200;BME280;33990;44.602;10.976;2023-07-29T05:14:29;100870.88;;;27.29;51.56
48200;BME280;33990;44.602;10.976;2023-07-29T05:16:56;100874.44;;;27.30;51.57
48200;BME280;33990;44.602;10.976;2023-07-29T05:19:24;100869.00;;;27.30;51.21
48200;BME280;33990;44.602;10.976;2023-07-29T05:21:51;100866.47;;;27.28;51.32
48200;BME280;33990;44.602;10.976;2023-07-29T05:24:19;100865.44;;;27.29;51.44
48200;BME280;33990;44.602;10.976;2023-07-29T05:26:46;100867.31;;;27.29;51.21
48200;BME280;33990;44.602;10.976;2023-07-29T05:29:13;100868.34;;;27.28;51.50
48200;BME280;33990;44.602;10.976;2023-07-29T05:31:41;100877.34;;;27.28;51.66
48200;BME280;33990;44.602;10.976;2023-07-29T05:34:08;100886.34;;;27.29;51.44
48200;BME280;33990;44.602;10.976;2023-07-29T05:36:36;100893.66;;;27.28;51.36
48200;BME280;33990;44.602;10.976;2023-07-29T05:39:04;100892.81;;;27.28;51.62
48200;BME280;33990;44.602;10.976;2023-07-29T05:41:31;100889.91;;;27.29;51.74
48200;BME280;33990;44.602;10.976;2023-07-29T05:43:59;100871.72;;;27.30;51.67
48200;BME280;33990;44.602;10.976;2023-07-29T05:46:26;100861.69;;;27.30;51.56
48200;BME280;33990;44.602;10.976;2023-07-29T05:48:54;100868.00;;;27.31;51.35
48200;BME280;33990;44.602;10.976;2023-07-29T05:51:21;100869.00;;;27.30;51.43
48200;BME280;33990;44.602;10.976;2023-07-29T05:53:49;100861.69;;;27.30;51.23
48200;BME280;33990;44.602;10.976;2023-07-29T05:56:16;100867.13;;;27.30;51.55
48200;BME280;33990;44.602;10.976;2023-07-29T05:58:44;100876.16;;;27.31;51.33
48200;BME280;33990;44.602;10.976;2023-07-29T06:01:11;100883.44;;;27.30;51.43
48200;BME280;33990;44.602;10.976;2023-07-29T06:03:39;100881.59;;;27.31;51.27
48200;BME280;33990;44.602;10.976;2023-07-29T06:06:07;100888.88;;;27.30;51.64
48200;BME280;33990;44.602;10.976;2023-07-29T06:08:34;100888.03;;;27.30;51.65
48200;BME280;33990;44.602;10.976;2023-07-29T06:11:02;100880.72;;;27.30;51.52
48200;BME280;33990;44.602;10.976;2023-07-29T06:13:29;100874.28;;;27.31;51.35
48200;BME280;33990;44.602;10.976;2023-07-29T06:15:57;100872.41;;;27.32;51.23
48200;BME280;33990;44.602;10.976;2023-07-29T06:18:25;100879.53;;;27.33;51.25
48200;BME280;33990;44.602;10.976;2023-07-29T06:20:52;100883.91;;;27.34;51.30
48200;BME280;33990;44.602;10.976;2023-07-29T06:23:20;100882.91;;;27.35;51.56
48200;BME280;33990;44.602;10.976;2023-07-29T06:25:47;100884.75;;;27.34;51.51
48200;BME280;33990;44.602;10.976;2023-07-29T06:28:14;100884.59;;;27.36;51.41
48200;BME280;33990;44.602;10.976;2023-07-29T06:30:42;100890.03;;;27.36;51.28
48200;BME280;33990;44.602;10.976;2023-07-29T06:33:09;100883.56;;;27.37;51.64
48200;BME280;33990;44.602;10.976;2023-07-29T06:35:37;100883.56;;;27.37;51.25
48200;BME280;33990;44.602;10.976;2023-07-29T06:38:04;100877.09;;;27.38;51.18
48200;BME280;33990;44.602;10.976;2023-07-29T06:40:31;100891.53;;;27.39;51.34
48200;BME280;33990;44.602;10.976;2023-07-29T06:42:59;100891.53;;;27.39;51.53
48200;BME280;33990;44.602;10.976;2023-07-29T06:45:26;100881.69;;;27.38;51.45
48200;BME280;33990;44.602;10.976;2023-07-29T06:47:54;100898.19;;;27.36;51.25
48200;BME280;33990;44.602;10.976;2023-07-29T06:50:21;100902.94;;;27.34;51.18
48200;BME280;33990;44.602;10.976;2023-07-29T06:52:48;100901.25;;;27.33;51.02
48200;BME280;33990;44.602;10.976;2023-07-29T06:55:16;100892.47;;;27.31;51.15
48200;BME280;33990;44.602;10.976;2023-07-29T06:57:43;100897.03;;;27.30;51.26
48200;BME280;33990;44.602;10.976;2023-07-29T07:00:11;100905.03;;;27.32;51.23
48200;BME280;33990;44.602;10.976;2023-07-29T07:02:38;100897.91;;;27.31;51.46
48200;BME280;33990;44.602;10.976;2023-07-29T07:05:05;100891.44;;;27.32;51.56
48200;BME280;33990;44.602;10.976;2023-07-29T07:07:33;100889.75;;;27.31;51.73
48200;BME280;33990;44.602;10.976;2023-07-29T07:10:01;100889.75;;;27.31;51.77
48200;BME280;33990;44.602;10.976;2023-07-29T07:12:28;100893.31;;;27.31;52.23
48200;BME280;33990;44.602;10.976;2023-07-29T07:14:55;100879.88;;;27.30;52.38
48200;BME280;33990;44.602;10.976;2023-07-29T07:17:23;100882.59;;;27.30;52.41
48200;BME280;33990;44.602;10.976;2023-07-29T07:19:50;100885.31;;;27.30;52.41
48200;BME280;33990;44.602;10.976;2023-07-29T07:22:17;100880.91;;;27.29;52.14
48200;BME280;33990;44.602;10.976;2023-07-29T07:24:45;100870.88;;;27.29;52.39
48200;BME280;33990;44.602;10.976;2023-07-29T07:27:12;100869.84;;;27.30;52.20
48200;BME280;33990;44.602;10.976;2023-07-29T07:29:40;100867.13;;;27.30;52.38
48200;BME280;33990;44.602;10.976;2023-07-29T07:32:07;100867.13;;;27.30;52.71
48200;BME280;33990;44.602;10.976;2023-07-29T07:34:35;100867.81;;;27.32;52.76
48200;BME280;33990;44.602;10.976;2023-07-29T07:37:02;100866.97;;;27.32;52.63
48200;BME280;33990;44.602;10.976;2023-07-29T07:39:31;100874.09;;;27.33;52.88
48200;BME280;33990;44.602;10.976;2023-07-29T07:41:59;100877.63;;;27.33;52.70
48200;BME280;33990;44.602;10.976;2023-07-29T07:44:26;100865.94;;;27.33;52.81
48200;BME280;33990;44.602;10.976;2023-07-29T07:46:53;100863.22;;;27.33;52.86
48200;BME280;33990;44.602;10.976;2023-07-29T07:49:22;100869.69;;;27.32;52.36
48200;BME280;33990;44.602;10.976;2023-07-29T07:51:49;100865.09;;;27.32;52.53
48200;BME280;33990;44.602;10.976;2023-07-29T07:54:16;100872.19;;;27.33;52.23
48200;BME280;33990;44.602;10.976;2023-07-29T07:56:44;100874.91;;;27.33;52.26
48200;BME280;33990;44.602;10.976;2023-07-29T07:59:11;100874.91;;;27.33;52.14
48200;BME280;33990;44.602;10.976;2023-07-29T08:01:41;100866.59;;;27.35;52.11
48200;BME280;33990;44.602;10.976;2023-07-29T08:04:08;100866.22;;;27.38;52.01
48200;BME280;33990;44.602;10.976;2023-07-29T08:06:36;100862.50;;;27.39;52.18
48200;BME280;33990;44.602;10.976;2023-07-29T08:09:04;100861.44;;;27.40;52.46
48200;BME280;33990;44.602;10.976;2023-07-29T08:11:32;100863.81;;;27.43;52.38
48200;BME280;33990;44.602;10.976;2023-07-29T08:13:59;100862.94;;;27.43;51.97
48200;BME280;33990;44.602;10.976;2023-07-29T08:16:26;100867.38;;;27.44;51.38
48200;BME280;33990;44.602;10.976;2023-07-29T08:18:55;100862.78;;;27.44;51.44
48200;BME280;33990;44.602;10.976;2023-07-29T08:21:23;100861.72;;;27.45;51.39
48200;BME280;33990;44.602;10.976;2023-07-29T08:23:50;100875.16;;;27.47;51.72
48200;BME280;33990;44.602;10.976;2023-07-29T08:26:17;100874.97;;;27.48;51.38
48200;BME280;33990;44.602;10.976;2023-07-29T08:28:45;100872.25;;;27.48;51.47
48200;BME280;33990;44.602;10.976;2023-07-29T08:31:12;100868.50;;;27.49;51.45
48200;BME280;33990;44.602;10.976;2023-07-29T08:33:39;100858.66;;;27.48;50.99
48200;BME280;33990;44.602;10.976;2023-07-29T08:36:07;100864.09;;;27.48;50.91
48200;BME280;33990;44.602;10.976;2023-07-29T08:38:34;100857.63;;;27.49;51.34
48200;BME280;33990;44.602;10.976;2023-07-29T08:41:29;100860.31;;;27.49;50.80
48200;BME280;33990;44.602;10.976;2023-07-29T08:44:04;100863.88;;;27.50;51.20
48200;BME280;33990;44.602;10.976;2023-07-29T08:46:36;100861.00;;;27.51;51.57
48200;BME280;33990;44.602;10.976;2023-07-29T08:49:05;100858.09;;;27.53;51.58
48200;BME280;33990;44.602;10.976;2023-07-29T08:51:33;100848.91;;;27.54;51.66
48200;BME280;33990;44.602;10.976;2023-07-29T08:54:01;100849.72;;;27.54;51.37
48200;BME280;33990;44.602;10.976;2023-07-29T08:56:29;100846.00;;;27.55;51.09
48200;BME280;33990;44.602;10.976;2023-07-29T08:58:57;100841.22;;;27.57;51.22
48200;BME280;33990;44.602;10.976;2023-07-29T09:01:27;100843.75;;;27.59;51.26
48200;BME280;33990;44.602;10.976;2023-07-29T09:03:55;100838.13;;;27.60;51.29
48200;BME280;33990;44.602;10.976;2023-07-29T09:06:23;100849.66;;;27.63;51.56
48200;BME280;33990;44.602;10.976;2023-07-29T09:08:55;100845.72;;;27.65;51.30
48200;BME280;33990;44.602;10.976;2023-07-29T09:11:23;100848.25;;;27.67;51.36
48200;BME280;33990;44.602;10.976;2023-07-29T09:13:51;100851.63;;;27.69;51.34
48200;BME280;33990;44.602;10.976;2023-07-29T09:16:20;100845.00;;;27.71;51.44
48200;BME280;33990;44.602;10.976;2023-07-29T09:18:49;100849.22;;;27.74;51.20
48200;BME280;33990;44.602;10.976;2023-07-29T09:21:24;100847.81;;;27.78;51.35
48200;BME280;33990;44.602;10.976;2023-07-29T09:23:54;100836.78;;;27.79;51.15
48200;BME280;33990;44.602;10.976;2023-07-29T09:26:25;100837.63;;;27.80;51.27
48200;BME280;33990;44.602;10.976;2023-07-29T09:28:57;100832.16;;;27.80;51.50
48200;BME280;33990;44.602;10.976;2023-07-29T09:31:26;100831.34;;;27.79;51.46
48200;BME280;33990;44.602;10.976;2023-07-29T09:34:02;100831.34;;;27.79;51.09
48200;BME280;33990;44.602;10.976;2023-07-29T09:36:31;100826.06;;;27.78;51.30
48200;BME280;33990;44.602;10.976;2023-07-29T09:38:59;100829.63;;;27.78;51.05
48200;BME280;33990;44.602;10.976;2023-07-29T09:41:28;100828.78;;;27.78;51.53
48200;BME280;33990;44.602;10.976;2023-07-29T09:44:01;100825.03;;;27.79;51.43
48200;BME280;33990;44.602;10.976;2023-07-29T09:46:37;100822.28;;;27.79;51.71
48200;BME280;33990;44.602;10.976;2023-07-29T09:49:07;100836.78;;;27.79;51.65
48200;BME280;33990;44.602;10.976;2023-07-29T09:51:38;100838.44;;;27.80;52.00
48200;BME280;33990;44.602;10.976;2023-07-29T09:54:06;100837.63;;;27.80;51.76
48200;BME280;33990;44.602;10.976;2023-07-29T09:56:39;100829.44;;;27.80;51.99
48200;BME280;33990;44.602;10.976;2023-07-29T09:59:08;100829.44;;;27.80;51.91
48200;BME280;33990;44.602;10.976;2023-07-29T10:01:36;100831.13;;;27.81;51.83
48200;BME280;33990;44.602;10.976;2023-07-29T10:04:05;100828.41;;;27.81;52.14
48200;BME280;33990;44.602;10.976;2023-07-29T10:06:35;100827.38;;;27.82;51.83
48200;BME280;33990;44.602;10.976;2023-07-29T10:09:05;100818.38;;;27.81;51.63
48200;BME280;33990;44.602;10.976;2023-07-29T10:11:32;100830.09;;;27.82;51.42
48200;BME280;33990;44.602;10.976;2023-07-29T10:14:01;100826.53;;;27.81;51.53
48200;BME280;33990;44.602;10.976;2023-07-29T10:16:40;100822.78;;;27.82;51.61
48200;BME280;33990;44.602;10.976;2023-07-29T10:19:09;100821.94;;;27.82;51.52
48200;BME280;33990;44.602;10.976;2023-07-29T10:21:38;100819.22;;;27.82;51.52
48200;BME280;33990;44.602;10.976;2023-07-29T10:24:14;100815.44;;;27.83;51.77
48200;BME280;33990;44.602;10.976;2023-07-29T10:26:46;100821.75;;;27.83;51.46
48200;BME280;33990;44.602;10.976;2023-07-29T10:29:14;100826.31;;;27.83;51.96
48200;BME280;33990;44.602;10.976;2023-07-29T10:31:46;100816.97;;;27.85;51.61
48200;BME280;33990;44.602;10.976;2023-07-29T10:34:14;100825.13;;;27.85;51.71
48200;BME280;33990;44.602;10.976;2023-07-29T10:36:41;100820.53;;;27.86;52.07
48200;BME280;33990;44.602;10.976;2023-07-29T10:39:09;100815.91;;;27.87;52.97
48200;BME280;33990;44.602;10.976;2023-07-29T10:41:58;100817.78;;;27.86;55.00
48200;BME280;33990;44.602;10.976;2023-07-29T10:47:18;100816.31;;;27.83;57.19
48200;BME280;33990;44.602;10.976;2023-07-29T10:49:52;100813.13;;;27.80;57.29
48200;BME280;33990;44.602;10.976;2023-07-29T10:52:37;100815.19;;;27.78;57.35
48200;BME280;33990;44.602;10.976;2023-07-29T10:55:32;100815.38;;;27.76;58.13
48200;BME280;33990;44.602;10.976;2023-07-29T10:58:13;100818.25;;;27.75;58.57
48200;BME280;33990;44.602;10.976;2023-07-29T11:00:42;100805.88;;;27.72;58.91
48200;BME280;33990;44.602;10.976;2023-07-29T11:03:12;100808.75;;;27.71;59.31
48200;BME280;33990;44.602;10.976;2023-07-29T11:08:34;100796.19;;;27.70;58.93
48200;BME280;33990;44.602;10.976;2023-07-29T11:13:34;100798.28;;;27.68;58.76
48200;BME280;33990;44.602;10.976;2023-07-29T11:16:02;100786.56;;;27.67;59.16
48200;BME280;33990;44.602;10.976;2023-07-29T11:18:32;100789.28;;;27.67;59.75
48200;BME280;33990;44.602;10.976;2023-07-29T11:21:02;100791.13;;;27.67;59.86
48200;BME280;33990;44.602;10.976;2023-07-29T11:23:32;100784.69;;;27.68;59.18
48200;BME280;33990;44.602;10.976;2023-07-29T11:25:59;100781.75;;;27.69;58.46
48200;BME280;33990;44.602;10.976;2023-07-29T11:28:27;100779.88;;;27.70;57.35
48200;BME280;33990;44.602;10.976;2023-07-29T11:30:56;100775.94;;;27.72;57.12
48200;BME280;33990;44.602;10.976;2023-07-29T11:33:25;100774.06;;;27.73;56.56
48200;BME280;33990;44.602;10.976;2023-07-29T11:35:55;100774.75;;;27.75;56.02
48200;BME280;33990;44.602;10.976;2023-07-29T11:38:23;100766.22;;;27.78;53.96
48200;BME280;33990;44.602;10.976;2023-07-29T11:40:55;100769.41;;;27.81;52.01
48200;BME280;33990;44.602;10.976;2023-07-29T11:43:23;100767.16;;;27.85;51.20
48200;BME280;33990;44.602;10.976;2023-07-29T11:45:51;100755.06;;;27.88;52.32
48200;BME280;33990;44.602;10.976;2023-07-29T11:48:26;100758.41;;;27.90;53.43
48200;BME280;33990;44.602;10.976;2023-07-29T11:50:54;100749.41;;;27.89;54.54
48200;BME280;33990;44.602;10.976;2023-07-29T11:53:22;100739.56;;;27.88;55.08
48200;BME280;33990;44.602;10.976;2023-07-29T11:55:53;100746.88;;;27.88;54.24
48200;BME280;33990;44.602;10.976;2023-07-29T11:58:21;100743.75;;;27.91;52.86
48200;BME280;33990;44.602;10.976;2023-07-29T12:00:48;100739.00;;;27.93;53.33
48200;BME280;33990;44.602;10.976;2023-07-29T12:03:18;100748.00;;;27.93;54.28
48200;BME280;33990;44.602;10.976;2023-07-29T12:05:46;100736.44;;;27.91;54.55
48200;BME280;33990;44.602;10.976;2023-07-29T12:08:16;100740.66;;;27.94;53.92
48200;BME280;33990;44.602;10.976;2023-07-29T12:10:43;100731.88;;;27.92;54.39
48200;BME280;33990;44.602;10.976;2023-07-29T12:13:11;100729.31;;;27.90;55.03
48200;BME280;33990;44.602;10.976;2023-07-29T12:15:39;100732.25;;;27.89;55.49
48200;BME280;33990;44.602;10.976;2023-07-29T12:18:08;100736.00;;;27.88;55.77
48200;BME280;33990;44.602;10.976;2023-07-29T12:20:36;100728.00;;;27.86;56.28
48200;BME280;33990;44.602;10.976;2023-07-29T12:23:03;100729.66;;;28.02;51.19
48200;BME280;33990;44.602;10.976;2023-07-29T12:25:33;100724.91;;;28.04;53.11
48200;BME280;33990;44.602;10.976;2023-07-29T12:28:05;100725.72;;;28.04;54.10
48200;BME280;33990;44.602;10.976;2023-07-29T12:30:34;100723.19;;;28.03;54.21
48200;BME280;33990;44.602;10.976;2023-07-29T12:33:08;100729.44;;;28.18;50.93
48200;BME280;33990;44.602;10.976;2023-07-29T12:35:36;100720.22;;;28.19;52.64
48200;BME280;33990;44.602;10.976;2023-07-29T12:38:04;100716.03;;;28.17;53.83
48200;BME280;33990;44.602;10.976;2023-07-29T12:40:32;100712.00;;;28.13;54.76
48200;BME280;33990;44.602;10.976;2023-07-29T12:43:00;100702.72;;;28.07;55.09
48200;BME280;33990;44.602;10.976;2023-07-29T12:45:35;100704.97;;;28.03;55.42
48200;BME280;33990;44.602;10.976;2023-07-29T12:48:03;100692.78;;;27.99;55.62
48200;BME280;33990;44.602;10.976;2023-07-29T12:50:30;100687.75;;;27.96;56.33
48200;BME280;33990;44.602;10.976;2023-07-29T12:52:57;100689.81;;;27.94;56.33
48200;BME280;33990;44.602;10.976;2023-07-29T12:55:25;100691.91;;;27.92;56.62
48200;BME280;33990;44.602;10.976;2023-07-29T12:57:52;100699.38;;;27.90;56.59